createdAt,value
2018-01-18T00:00:16.416Z,997.56
2018-01-18T00:00:56.857Z,997.56
2018-01-18T00:01:37.298Z,997.57
2018-01-18T00:02:17.691Z,997.55
2018-01-18T00:02:58.087Z,997.6
2018-01-18T00:03:38.741Z,997.49
2018-01-18T00:04:19.078Z,997.5
2018-01-18T00:04:59.632Z,997.54
2018-01-18T00:05:39.934Z,997.5
2018-01-18T00:06:20.514Z,997.53
2018-01-18T00:07:00.887Z,997.41
2018-01-18T00:07:41.263Z,997.45
2018-01-18T00:08:22.819Z,997.45
2018-01-18T00:09:03.152Z,997.43
2018-01-18T00:09:43.475Z,997.46
2018-01-18T00:10:23.797Z,997.38
2018-01-18T00:11:04.246Z,997.46
2018-01-18T00:11:44.607Z,997.38
2018-01-18T00:12:25.082Z,997.46
2018-01-18T00:13:05.457Z,997.39
2018-01-18T00:13:45.880Z,997.37
2018-01-18T00:14:26.321Z,997.36
2018-01-18T00:15:06.747Z,997.39
2018-01-18T00:15:47.049Z,997.34
2018-01-18T00:16:27.438Z,997.4
2018-01-18T00:17:07.821Z,997.41
2018-01-18T00:17:49.142Z,997.37
2018-01-18T00:18:29.620Z,997.32
2018-01-18T00:19:10.013Z,997.3
2018-01-18T00:19:50.390Z,997.39
2018-01-18T00:20:30.800Z,997.4
2018-01-18T00:21:11.178Z,997.35
2018-01-18T00:21:51.642Z,997.4
2018-01-18T00:22:31.965Z,997.39
2018-01-18T00:23:13.237Z,997.38
2018-01-18T00:23:53.545Z,997.37
2018-01-18T00:24:34.032Z,997.37
2018-01-18T00:25:14.370Z,997.42
2018-01-18T00:25:54.796Z,997.34
2018-01-18T00:26:35.130Z,997.36
2018-01-18T00:27:15.526Z,997.32
2018-01-18T00:27:55.930Z,997.34
2018-01-18T00:28:36.324Z,997.23
2018-01-18T00:29:16.727Z,997.26
2018-01-18T00:29:57.139Z,997.16
2018-01-18T00:30:37.523Z,997.28
2018-01-18T00:31:18.001Z,997.23
2018-01-18T00:31:58.438Z,997.14
2018-01-18T00:32:38.813Z,997.21
2018-01-18T00:33:19.257Z,997.18
2018-01-18T00:33:59.624Z,997.13
2018-01-18T00:34:40.200Z,997.12
2018-01-18T00:35:20.401Z,997.1
2018-01-18T00:36:00.869Z,997.11
2018-01-18T00:36:41.191Z,997.05
2018-01-18T00:37:21.605Z,997.02
2018-01-18T00:38:02.196Z,997.05
2018-01-18T00:38:42.649Z,997.03
2018-01-18T00:39:23.079Z,996.97
2018-01-18T00:40:03.523Z,996.93
2018-01-18T00:40:44.127Z,996.87
2018-01-18T00:41:24.543Z,996.9
2018-01-18T00:42:04.929Z,996.86
2018-01-18T00:42:45.530Z,996.8
2018-01-18T00:43:25.776Z,996.72
2018-01-18T00:44:06.066Z,996.81
2018-01-18T00:44:46.542Z,996.74
2018-01-18T00:45:26.984Z,996.75
2018-01-18T00:46:07.517Z,996.69
2018-01-18T00:46:47.778Z,996.73
2018-01-18T00:47:28.248Z,996.68
2018-01-18T00:48:08.618Z,996.65
2018-01-18T00:48:49.111Z,996.62
2018-01-18T00:49:29.511Z,996.59
2018-01-18T00:50:09.974Z,996.56
2018-01-18T00:50:50.485Z,996.52
2018-01-18T00:51:30.807Z,996.55
2018-01-18T00:52:11.371Z,996.52
2018-01-18T00:52:51.681Z,996.52
2018-01-18T00:53:32.151Z,996.54
2018-01-18T00:54:12.485Z,996.53
2018-01-18T00:54:52.943Z,996.52
2018-01-18T00:55:33.361Z,996.48
2018-01-18T00:56:13.787Z,996.51
2018-01-18T00:56:54.077Z,996.55
2018-01-18T00:57:34.585Z,996.49
2018-01-18T00:58:15.698Z,996.5
2018-01-18T00:58:56.155Z,996.51
2018-01-18T00:59:36.670Z,996.43
2018-01-18T01:00:16.935Z,996.4
2018-01-18T01:00:57.349Z,996.41
2018-01-18T01:01:37.760Z,996.37
2018-01-18T01:02:18.163Z,996.38
2018-01-18T01:02:58.492Z,996.32
2018-01-18T01:03:38.928Z,996.31
2018-01-18T01:04:19.298Z,996.33
2018-01-18T01:04:59.763Z,996.27
2018-01-18T01:05:40.139Z,996.31
2018-01-18T01:06:20.601Z,996.25
2018-01-18T01:07:01.022Z,996.24
2018-01-18T01:07:41.352Z,996.22
2018-01-18T01:08:21.967Z,996.28
2018-01-18T01:09:02.269Z,996.28
2018-01-18T01:09:43.165Z,996.21
2018-01-18T01:10:23.486Z,996.17
2018-01-18T01:11:03.881Z,996.16
2018-01-18T01:11:44.309Z,996.16
2018-01-18T01:12:24.906Z,996.12
2018-01-18T01:13:05.368Z,996.1
2018-01-18T01:13:45.764Z,996.11
2018-01-18T01:14:26.188Z,996.08
2018-01-18T01:15:06.542Z,996.12
2018-01-18T01:15:46.974Z,996.09
2018-01-18T01:16:27.336Z,996.06
2018-01-18T01:17:08.050Z,996.04
2018-01-18T01:17:48.448Z,996.04
2018-01-18T01:18:28.902Z,996.04
2018-01-18T01:19:09.273Z,996.03
2018-01-18T01:19:49.651Z,995.98
2018-01-18T01:20:30.173Z,995.93
2018-01-18T01:21:10.472Z,995.92
2018-01-18T01:21:50.852Z,995.9
2018-01-18T01:22:31.363Z,995.87
2018-01-18T01:23:11.677Z,995.85
2018-01-18T01:23:52.077Z,995.79
2018-01-18T01:24:32.474Z,995.77
2018-01-18T01:25:12.834Z,995.73
2018-01-18T01:25:53.464Z,995.7
2018-01-18T01:26:33.656Z,995.7
2018-01-18T01:27:14.134Z,995.65
2018-01-18T01:27:54.761Z,995.62
2018-01-18T01:28:35.089Z,995.63
2018-01-18T01:29:15.471Z,995.64
2018-01-18T01:29:55.958Z,995.52
2018-01-18T01:30:36.342Z,995.54
2018-01-18T01:31:16.935Z,995.47
2018-01-18T01:31:57.300Z,995.55
2018-01-18T01:32:37.763Z,995.49
2018-01-18T01:33:18.130Z,995.49
2018-01-18T01:33:58.559Z,995.5
2018-01-18T01:34:38.973Z,995.47
2018-01-18T01:35:19.424Z,995.5
2018-01-18T01:35:59.780Z,995.47
2018-01-18T01:36:40.166Z,995.5
2018-01-18T01:37:20.594Z,995.56
2018-01-18T01:38:01.008Z,995.52
2018-01-18T01:38:41.435Z,995.46
2018-01-18T01:39:21.762Z,995.49
2018-01-18T01:40:02.178Z,995.54
2018-01-18T01:40:42.536Z,995.47
2018-01-18T01:41:23.078Z,995.47
2018-01-18T01:42:03.612Z,995.51
2018-01-18T01:42:44.045Z,995.42
2018-01-18T01:43:24.418Z,995.36
2018-01-18T01:44:04.850Z,995.37
2018-01-18T01:44:45.136Z,995.34
2018-01-18T01:45:25.552Z,995.34
2018-01-18T01:46:06.046Z,995.3
2018-01-18T01:46:46.440Z,995.28
2018-01-18T01:47:26.810Z,995.28
2018-01-18T01:48:07.344Z,995.22
2018-01-18T01:48:47.693Z,995.22
2018-01-18T01:49:28.011Z,995.17
2018-01-18T01:50:08.603Z,995.16
2018-01-18T01:50:48.959Z,995.1
2018-01-18T01:51:29.420Z,995.1
2018-01-18T01:52:09.819Z,995.01
2018-01-18T01:52:50.192Z,994.96
2018-01-18T01:53:30.527Z,994.92
2018-01-18T01:54:10.920Z,994.87
2018-01-18T01:54:51.370Z,994.75
2018-01-18T01:55:31.809Z,994.81
2018-01-18T01:56:12.228Z,994.73
2018-01-18T01:56:52.575Z,994.7
2018-01-18T01:57:33.685Z,994.67
2018-01-18T01:58:14.079Z,994.66
2018-01-18T01:58:54.423Z,994.63
2018-01-18T01:59:34.892Z,994.62
2018-01-18T02:00:15.358Z,994.63
2018-01-18T02:00:55.713Z,994.66
2018-01-18T02:01:36.185Z,994.68
2018-01-18T02:02:16.522Z,994.73
2018-01-18T02:02:57.584Z,994.73
2018-01-18T02:03:38.064Z,994.74
2018-01-18T02:04:18.499Z,994.68
2018-01-18T02:04:58.736Z,994.67
2018-01-18T02:05:39.191Z,994.67
2018-01-18T02:06:19.596Z,994.75
2018-01-18T02:07:00.006Z,994.74
2018-01-18T02:07:40.415Z,994.77
2018-01-18T02:08:20.741Z,994.77
2018-01-18T02:09:01.266Z,994.71
2018-01-18T02:09:41.751Z,994.71
2018-01-18T02:10:22.168Z,994.7
2018-01-18T02:11:02.574Z,994.68
2018-01-18T02:11:43.148Z,994.66
2018-01-18T02:12:23.542Z,994.67
2018-01-18T02:13:03.882Z,994.55
2018-01-18T02:13:44.303Z,994.56
2018-01-18T02:14:24.578Z,994.59
2018-01-18T02:15:05.317Z,994.6
2018-01-18T02:15:45.748Z,994.55
2018-01-18T02:16:26.164Z,994.64
2018-01-18T02:17:06.599Z,994.58
2018-01-18T02:17:47.098Z,994.49
2018-01-18T02:18:27.538Z,994.49
2018-01-18T02:19:07.963Z,994.51
2018-01-18T02:19:52.140Z,994.44
2018-01-18T02:20:32.442Z,994.36
2018-01-18T02:21:12.819Z,994.32
2018-01-18T02:21:53.298Z,994.34
2018-01-18T02:22:33.769Z,994.28
2018-01-18T02:23:14.024Z,994.28
2018-01-18T02:23:54.596Z,994.3
2018-01-18T02:24:34.993Z,994.3
2018-01-18T02:25:15.441Z,994.3
2018-01-18T02:25:55.818Z,994.28
2018-01-18T02:26:36.237Z,994.29
2018-01-18T02:27:16.625Z,994.31
2018-01-18T02:27:57.277Z,994.29
2018-01-18T02:28:37.595Z,994.2
2018-01-18T02:29:17.827Z,994.23
2018-01-18T02:29:58.792Z,994.26
2018-01-18T02:30:39.230Z,994.21
2018-01-18T02:31:19.566Z,994.2
2018-01-18T02:32:00.067Z,994.2
2018-01-18T02:32:40.348Z,994.17
2018-01-18T02:33:20.766Z,994.15
2018-01-18T02:34:01.094Z,994.13
2018-01-18T02:34:41.547Z,994.08
2018-01-18T02:35:21.894Z,994.06
2018-01-18T02:36:02.333Z,994.05
2018-01-18T02:36:42.801Z,994.06
2018-01-18T02:37:23.175Z,993.99
2018-01-18T02:38:03.558Z,993.99
2018-01-18T02:38:43.975Z,993.99
2018-01-18T02:39:24.352Z,993.93
2018-01-18T02:40:04.712Z,993.94
2018-01-18T02:40:45.127Z,993.87
2018-01-18T02:41:25.685Z,993.86
2018-01-18T02:42:06.121Z,993.8
2018-01-18T02:42:46.512Z,993.8
2018-01-18T02:43:26.988Z,993.72
2018-01-18T02:44:07.343Z,993.8
2018-01-18T02:44:47.728Z,993.73
2018-01-18T02:45:28.184Z,993.69
2018-01-18T02:46:08.522Z,993.61
2018-01-18T02:46:48.956Z,993.65
2018-01-18T02:47:29.393Z,993.65
2018-01-18T02:48:09.733Z,993.53
2018-01-18T02:48:50.141Z,993.52
2018-01-18T02:49:30.559Z,993.54
2018-01-18T02:50:10.965Z,993.48
2018-01-18T02:50:51.298Z,993.49
2018-01-18T02:51:31.710Z,993.5
2018-01-18T02:52:12.107Z,993.39
2018-01-18T02:52:52.462Z,993.4
2018-01-18T02:53:32.898Z,993.33
2018-01-18T02:54:13.257Z,993.31
2018-01-18T02:54:53.767Z,993.31
2018-01-18T02:55:34.197Z,993.23
2018-01-18T02:56:14.537Z,993.29
2018-01-18T02:56:54.941Z,993.16
2018-01-18T02:57:35.411Z,993.18
2018-01-18T02:58:15.793Z,993.17
2018-01-18T02:58:56.174Z,993.09
2018-01-18T02:59:36.588Z,993.07
2018-01-18T03:00:16.980Z,993.05
2018-01-18T03:00:57.380Z,993.07
2018-01-18T03:01:37.758Z,992.9
2018-01-18T03:02:18.153Z,992.88
2018-01-18T03:02:58.539Z,992.81
2018-01-18T03:03:38.969Z,992.77
2018-01-18T03:04:19.339Z,992.7
2018-01-18T03:04:59.751Z,992.76
2018-01-18T03:05:40.088Z,992.66
2018-01-18T03:06:20.518Z,992.56
2018-01-18T03:07:00.937Z,992.52
2018-01-18T03:07:41.339Z,992.48
2018-01-18T03:08:21.700Z,992.43
2018-01-18T03:09:02.126Z,992.36
2018-01-18T03:09:42.503Z,992.34
2018-01-18T03:10:22.904Z,992.35
2018-01-18T03:11:03.303Z,992.25
2018-01-18T03:11:43.612Z,992.2
2018-01-18T03:12:24.048Z,992.16
2018-01-18T03:13:04.474Z,992.08
2018-01-18T03:13:44.875Z,992.06
2018-01-18T03:14:25.316Z,992.04
2018-01-18T03:15:05.672Z,992.06
2018-01-18T03:15:46.055Z,992.15
2018-01-18T03:16:26.481Z,992.02
2018-01-18T03:17:06.891Z,991.97
2018-01-18T03:17:47.306Z,991.92
2018-01-18T03:18:27.718Z,991.88
2018-01-18T03:19:08.134Z,991.81
2018-01-18T03:19:48.495Z,991.78
2018-01-18T03:20:28.932Z,991.78
2018-01-18T03:21:09.417Z,991.69
2018-01-18T03:21:49.742Z,991.69
2018-01-18T03:22:30.142Z,991.6
2018-01-18T03:23:10.538Z,991.55
2018-01-18T03:23:50.986Z,991.6
2018-01-18T03:24:31.267Z,991.45
2018-01-18T03:25:11.702Z,991.41
2018-01-18T03:25:52.089Z,991.46
2018-01-18T03:26:32.456Z,991.42
2018-01-18T03:27:12.847Z,991.37
2018-01-18T03:27:53.242Z,991.33
2018-01-18T03:28:33.681Z,991.26
2018-01-18T03:29:14.070Z,991.18
2018-01-18T03:29:54.486Z,991.17
2018-01-18T03:30:34.906Z,991.1
2018-01-18T03:31:15.266Z,991.19
2018-01-18T03:31:55.647Z,991.1
2018-01-18T03:32:36.038Z,991.05
2018-01-18T03:33:16.481Z,991.02
2018-01-18T03:33:56.888Z,991
2018-01-18T03:34:37.294Z,990.99
2018-01-18T03:35:17.650Z,990.95
2018-01-18T03:35:58.036Z,990.93
2018-01-18T03:36:38.527Z,990.79
2018-01-18T03:37:18.971Z,990.87
2018-01-18T03:37:59.363Z,990.77
2018-01-18T03:38:39.827Z,990.76
2018-01-18T03:39:20.167Z,990.66
2018-01-18T03:40:00.674Z,990.7
2018-01-18T03:40:41.048Z,990.66
2018-01-18T03:41:21.432Z,990.61
2018-01-18T03:42:01.982Z,990.6
2018-01-18T03:42:42.244Z,990.52
2018-01-18T03:43:22.673Z,990.47
2018-01-18T03:44:03.132Z,990.45
2018-01-18T03:44:43.448Z,990.42
2018-01-18T03:45:23.798Z,990.29
2018-01-18T03:46:04.259Z,990.3
2018-01-18T03:46:44.658Z,990.27
2018-01-18T03:47:25.032Z,990.13
2018-01-18T03:48:05.385Z,990.14
2018-01-18T03:48:45.775Z,990.15
2018-01-18T03:49:26.146Z,990.05
2018-01-18T03:50:06.602Z,990.11
2018-01-18T03:50:46.992Z,990.03
2018-01-18T03:51:27.394Z,990.04
2018-01-18T03:52:07.760Z,989.96
2018-01-18T03:52:48.161Z,989.97
2018-01-18T03:53:28.606Z,989.9
2018-01-18T03:54:08.954Z,989.87
2018-01-18T03:54:49.330Z,989.77
2018-01-18T03:55:29.831Z,989.7
2018-01-18T03:56:10.217Z,989.78
2018-01-18T03:56:50.573Z,989.65
2018-01-18T03:57:31.031Z,989.67
2018-01-18T03:58:11.435Z,989.57
2018-01-18T03:58:51.899Z,989.67
2018-01-18T03:59:32.175Z,989.54
2018-01-18T04:00:13.208Z,989.57
2018-01-18T04:00:53.590Z,989.42
2018-01-18T04:01:33.982Z,989.36
2018-01-18T04:02:14.386Z,989.37
2018-01-18T04:44:04.508Z,987.19
2018-01-18T04:44:45.397Z,987.18
2018-01-18T04:45:26.847Z,987.23
2018-01-18T04:46:08.037Z,987.1
2018-01-18T04:46:48.463Z,987.16
2018-01-18T04:47:29.095Z,987.06
2018-01-18T04:48:09.821Z,987.05
2018-01-18T04:48:50.468Z,986.98
2018-01-18T04:49:31.557Z,987.04
2018-01-18T04:50:12.522Z,987
2018-01-18T04:50:55.150Z,986.98
2018-01-18T04:51:38.663Z,986.96
2018-01-18T04:52:20.936Z,986.83
2018-01-18T04:53:05.552Z,986.97
2018-01-18T04:53:45.952Z,986.75
2018-01-18T04:54:26.380Z,986.76
2018-01-18T04:55:07.598Z,986.71
2018-01-18T04:55:48.003Z,986.76
2018-01-18T04:56:29.839Z,986.8
2018-01-18T04:57:10.411Z,986.8
2018-01-18T04:57:51.192Z,986.57
2018-01-18T04:58:32.567Z,986.57
2018-01-18T04:59:12.989Z,986.68
2018-01-18T04:59:53.648Z,986.64
2018-01-18T05:00:34.625Z,986.6
2018-01-18T05:01:15.055Z,986.61
2018-01-18T05:01:56.522Z,986.58
2018-01-18T05:02:36.980Z,986.56
2018-01-18T05:03:17.911Z,986.54
2018-01-18T05:03:58.695Z,986.39
2018-01-18T05:04:38.814Z,986.36
2018-01-18T05:05:19.299Z,986.26
2018-01-18T05:06:01.288Z,986.25
2018-01-18T05:06:41.969Z,986.08
2018-01-18T05:09:09.922Z,985.98
2018-01-18T05:10:02.396Z,986.17
2018-01-18T05:12:07.521Z,985.99
2018-01-18T05:12:49.944Z,985.82
2018-01-18T05:13:31.288Z,985.95
2018-01-18T05:17:07.869Z,985.63
2018-01-18T05:17:48.343Z,985.61
2018-01-18T05:18:29.713Z,985.56
2018-01-18T05:19:10.279Z,985.33
2018-01-18T05:19:52.019Z,985.5
2018-01-18T05:20:34.195Z,985.38
2018-01-18T05:21:14.387Z,985.24
2018-01-18T05:21:54.843Z,985.43
2018-01-18T05:22:35.354Z,985.35
2018-01-18T05:23:15.914Z,985.28
2018-01-18T05:23:56.464Z,985.28
2018-01-18T05:24:38.666Z,985.44
2018-01-18T05:25:20.379Z,985.29
2018-01-18T05:26:00.919Z,985.27
2018-01-18T05:26:41.309Z,985.15
2018-01-18T05:27:22.965Z,985.33
2018-01-18T05:28:03.396Z,985.33
2018-01-18T05:28:44.646Z,985.36
2018-01-18T05:29:25.999Z,985.28
2018-01-18T05:30:06.334Z,985.37
2018-01-18T05:30:46.739Z,985.26
2018-01-18T05:31:27.123Z,985.29
2018-01-18T05:32:07.609Z,985.27
2018-01-18T05:32:48.094Z,985.31
2018-01-18T05:33:28.910Z,985.36
2018-01-18T05:34:09.698Z,985.5
2018-01-18T05:34:50.241Z,985.28
2018-01-18T05:35:30.686Z,985.24
2018-01-18T05:36:11.408Z,985.2
2018-01-18T05:36:51.795Z,985.17
2018-01-18T05:37:34.045Z,984.88
2018-01-18T05:38:15.032Z,984.96
2018-01-18T05:38:55.469Z,984.68
2018-01-18T05:39:36.119Z,984.96
2018-01-18T05:40:16.430Z,984.96
2018-01-18T05:40:56.870Z,984.83
2018-01-18T05:41:37.327Z,984.83
2018-01-18T05:42:17.804Z,984.83
2018-01-18T05:42:58.177Z,984.91
2018-01-18T05:43:38.686Z,984.88
2018-01-18T05:44:19.783Z,984.92
2018-01-18T05:45:00.300Z,984.74
2018-01-18T05:45:41.652Z,984.67
2018-01-18T05:46:22.849Z,984.72
2018-01-18T05:47:03.207Z,984.75
2018-01-18T05:47:44.275Z,984.58
2018-01-18T05:48:24.788Z,984.5
2018-01-18T05:49:05.189Z,984.62
2018-01-18T05:49:45.868Z,984.5
2018-01-18T05:50:26.151Z,984.47
2018-01-18T05:51:06.684Z,984.6
2018-01-18T05:51:47.054Z,984.68
2018-01-18T05:52:27.819Z,984.35
2018-01-18T05:53:08.819Z,984.47
2018-01-18T05:53:49.450Z,984.62
2018-01-18T05:54:31.450Z,984.63
2018-01-18T05:55:11.745Z,984.11
2018-01-18T05:55:53.025Z,984.3
2018-01-18T05:56:33.464Z,984.4
2018-01-18T05:57:14.012Z,984.19
2018-01-18T05:57:54.429Z,984.3
2018-01-18T05:58:34.886Z,984.15
2018-01-18T05:59:15.360Z,984.26
2018-01-18T05:59:55.788Z,984.17
2018-01-18T06:00:36.302Z,984.44
2018-01-18T06:03:42.040Z,984.24
2018-01-18T06:04:22.431Z,984.15
2018-01-18T06:05:02.963Z,984.06
2018-01-18T06:05:43.343Z,983.94
2018-01-18T06:06:23.828Z,984.02
2018-01-18T06:07:04.148Z,983.98
2018-01-18T06:07:44.778Z,984.12
2018-01-18T06:08:25.610Z,984.02
2018-01-18T06:09:06.065Z,983.97
2018-01-18T06:09:47.295Z,984.06
2018-01-18T06:10:27.797Z,983.8
2018-01-18T06:11:10.007Z,983.66
2018-01-18T06:11:52.701Z,983.75
2018-01-18T06:12:34.454Z,983.73
2018-01-18T06:13:15.630Z,983.77
2018-01-18T06:13:59.858Z,983.72
2018-01-18T06:14:41.991Z,983.76
2018-01-18T06:15:22.359Z,983.66
2018-01-18T06:16:04.251Z,983.63
2018-01-18T06:16:52.716Z,983.71
2018-01-18T06:17:41.581Z,983.64
2018-01-18T06:18:23.757Z,983.72
2018-01-18T06:19:07.047Z,983.77
2018-01-18T06:19:50.674Z,983.55
2018-01-18T06:20:34.189Z,983.64
2018-01-18T06:21:14.782Z,983.6
2018-01-18T06:21:57.143Z,983.61
2018-01-18T06:22:38.665Z,983.48
2018-01-18T06:23:22.744Z,983.61
2018-01-18T06:24:03.991Z,983.43
2018-01-18T06:24:49.631Z,983.65
2018-01-18T06:25:32.824Z,983.59
2018-01-18T06:26:16.569Z,983.68
2018-01-18T06:27:01.802Z,983.62
2018-01-18T06:27:42.567Z,983.61
2018-01-18T06:28:24.890Z,983.49
2018-01-18T06:29:06.181Z,983.55
2018-01-18T06:29:48.023Z,983.43
2018-01-18T06:30:31.922Z,983.38
2018-01-18T06:31:16.791Z,983.45
2018-01-18T06:31:59.262Z,983.29
2018-01-18T06:32:42.400Z,983.28
2018-01-18T06:33:28.232Z,983.17
2018-01-18T06:34:08.537Z,983.44
2018-01-18T06:34:56.214Z,983.03
2018-01-18T06:35:36.950Z,983.1
2018-01-18T06:36:18.857Z,983.19
2018-01-18T06:37:01.834Z,983.19
2018-01-18T06:39:20.482Z,983.02
2018-01-18T06:40:03.550Z,983.03
2018-01-18T06:40:43.982Z,983.1
2018-01-18T06:41:24.562Z,982.98
2018-01-18T06:42:05.945Z,982.94
2018-01-18T06:42:46.210Z,982.95
2018-01-18T06:43:27.207Z,982.87
2018-01-18T06:44:07.684Z,982.93
2018-01-18T06:44:48.056Z,982.58
2018-01-18T06:45:29.028Z,982.85
2018-01-18T06:46:10.309Z,983.07
2018-01-18T06:46:50.920Z,982.94
2018-01-18T06:47:31.740Z,982.9
2018-01-18T06:48:12.069Z,982.81
2018-01-18T06:48:53.198Z,983
2018-01-18T06:49:35.556Z,982.96
2018-01-18T06:50:16.238Z,982.87
2018-01-18T06:50:57.620Z,982.87
2018-01-18T06:51:38.073Z,982.51
2018-01-18T06:52:18.932Z,982.55
2018-01-18T06:53:00.430Z,982.53
2018-01-18T06:53:40.968Z,982.2
2018-01-18T06:54:22.260Z,982.59
2018-01-18T06:55:02.570Z,982.77
2018-01-18T06:55:44.552Z,982.69
2018-01-18T06:56:25.503Z,982.74
2018-01-18T06:57:07.085Z,982.78
2018-01-18T06:57:47.973Z,982.75
2018-01-18T06:58:33.261Z,982.7
2018-01-18T06:59:13.709Z,982.64
2018-01-18T06:59:54.330Z,982.4
2018-01-18T07:00:35.006Z,982.58
2018-01-18T07:01:15.951Z,982.5
2018-01-18T07:01:56.417Z,982.48
2018-01-18T07:02:36.942Z,982.36
2018-01-18T07:03:17.775Z,982.47
2018-01-18T07:03:58.449Z,982.31
2018-01-18T07:04:38.654Z,982.45
2018-01-18T07:05:19.175Z,982.51
2018-01-18T07:05:59.709Z,982.28
2018-01-18T07:06:40.137Z,982.5
2018-01-18T07:07:20.840Z,982.49
2018-01-18T07:08:01.760Z,982.54
2018-01-18T07:08:43.090Z,982.66
2018-01-18T07:09:23.726Z,982.75
2018-01-18T07:10:04.278Z,982.49
2018-01-18T07:10:44.607Z,982.5
2018-01-18T07:11:25.258Z,982.44
2018-01-18T07:12:06.149Z,982.3
2018-01-18T07:12:46.910Z,982.53
2018-01-18T07:13:28.640Z,982.02
2018-01-18T07:14:09.345Z,982.09
2018-01-18T07:14:50.336Z,982.07
2018-01-18T07:15:30.996Z,982.25
2018-01-18T07:16:11.407Z,982.24
2018-01-18T07:16:52.024Z,982.29
2018-01-18T07:17:32.714Z,982.44
2018-01-18T07:18:13.474Z,982.43
2018-01-18T07:18:54.114Z,982.2
2018-01-18T07:19:34.823Z,982.17
2018-01-18T07:20:16.078Z,982.24
2018-01-18T07:20:56.371Z,982.61
2018-01-18T07:21:37.038Z,982.57
2018-01-18T07:22:18.238Z,981.89
2018-01-18T07:22:58.363Z,982.35
2018-01-18T07:23:39.078Z,982.16
2018-01-18T07:24:19.802Z,982.1
2018-01-18T07:25:01.045Z,981.73
2018-01-18T07:25:41.271Z,982.67
2018-01-18T07:26:21.928Z,982.38
2018-01-18T07:27:02.479Z,982.26
2018-01-18T07:27:43.537Z,982.45
2018-01-18T07:28:24.100Z,982.23
2018-01-18T07:29:06.193Z,982.34
2018-01-18T07:29:46.799Z,982.42
2018-01-18T07:30:27.722Z,982.51
2018-01-18T07:31:09.162Z,982.35
2018-01-18T07:31:50.283Z,982.4
2018-01-18T07:32:31.044Z,982.34
2018-01-18T07:33:12.282Z,982.5
2018-01-18T07:33:52.794Z,982.46
2018-01-18T07:34:34.125Z,982.25
2018-01-18T07:35:15.152Z,982.02
2018-01-18T07:35:56.440Z,982.31
2018-01-18T07:36:37.234Z,982.13
2018-01-18T07:37:18.500Z,981.91
2018-01-18T07:37:59.349Z,981.86
2018-01-18T07:38:39.637Z,982.04
2018-01-18T07:39:21.550Z,982.5
2018-01-18T07:40:02.964Z,981.88
2018-01-18T07:40:44.143Z,981.54
2018-01-18T07:41:24.510Z,981.91
2018-01-18T07:42:05.541Z,981.89
2018-01-18T07:42:46.142Z,981.88
2018-01-18T07:44:50.401Z,981.94
2018-01-18T07:47:21.775Z,981.98
2018-01-18T07:48:02.988Z,982.09
2018-01-18T07:48:43.493Z,981.6
2018-01-18T07:49:28.459Z,981.59
2018-01-18T07:50:16.630Z,981.9
2018-01-18T07:50:58.123Z,981.91
2018-01-18T07:51:41.324Z,981.97
2018-01-18T07:52:23.243Z,981.82
2018-01-18T07:53:05.776Z,981.63
2018-01-18T07:53:48.856Z,982.1
2018-01-18T07:54:31.962Z,981.69
2018-01-18T07:55:13.049Z,981.32
2018-01-18T07:55:54.994Z,981.8
2018-01-18T07:56:36.808Z,981.83
2018-01-18T09:42:40.888Z,982.78
2018-01-18T09:43:21.395Z,982.83
2018-01-18T09:44:01.924Z,982.87
2018-01-18T09:44:43.405Z,982.87
2018-01-18T09:45:24.182Z,983.12
2018-01-18T09:46:05.379Z,983.06
2018-01-18T09:46:45.862Z,982.98
2018-01-18T09:47:26.788Z,982.95
2018-01-18T09:48:07.819Z,982.95
2018-01-18T09:48:48.348Z,982.94
2018-01-18T09:49:29.628Z,982.17
2018-01-18T09:50:10.713Z,981.97
2018-01-18T09:50:51.498Z,982.66
2018-01-18T09:51:33.001Z,982.92
2018-01-18T09:52:13.555Z,983.05
2018-01-18T09:52:54.882Z,982.82
2018-01-18T09:53:35.117Z,982.49
2018-01-18T09:54:15.805Z,983.12
2018-01-18T09:54:56.783Z,982.95
2018-01-18T09:55:37.212Z,983.12
2018-01-18T09:56:18.101Z,982.92
2018-01-18T09:56:58.579Z,982.86
2018-01-18T09:57:39.216Z,983.48
2018-01-18T09:58:19.585Z,983.19
2018-01-18T09:59:00.333Z,982.85
2018-01-18T09:59:41.018Z,982.95
2018-01-18T10:00:21.733Z,982.47
2018-01-18T10:01:02.468Z,982.82
2018-01-18T10:01:42.999Z,983.05
2018-01-18T10:02:23.576Z,983.15
2018-01-18T10:03:03.956Z,983.16
2018-01-18T10:03:45.123Z,983.48
2018-01-18T10:45:09.759Z,985.25
2018-01-18T10:49:40.643Z,985.72
2018-01-18T10:50:22.089Z,985.54
2018-01-18T10:51:02.938Z,985.25
2018-01-18T10:51:43.452Z,985.69
2018-01-18T10:52:24.021Z,985.49
2018-01-18T10:53:04.544Z,985.62
2018-01-18T10:53:45.672Z,985.74
2018-01-18T10:54:26.693Z,985.71
2018-01-18T10:55:07.407Z,985.7
2018-01-18T10:55:48.442Z,986.04
2018-01-18T10:56:29.506Z,986.18
2018-01-18T10:57:10.297Z,986.08
2018-01-18T10:57:51.465Z,985.65
2018-01-18T10:58:32.675Z,986.09
2018-01-18T10:59:13.371Z,986.07
2018-01-18T10:59:54.206Z,985.36
2018-01-18T11:00:35.054Z,986.16
2018-01-18T11:01:16.062Z,985.83
2018-01-18T11:01:56.960Z,986.06
2018-01-18T11:02:38.013Z,986.19
2018-01-18T11:03:18.265Z,986.35
2018-01-18T11:03:58.895Z,986.47
2018-01-18T11:04:39.362Z,986.19
2018-01-18T11:05:20.053Z,986.34
2018-01-18T11:06:00.489Z,986.47
2018-01-18T11:06:41.085Z,986.65
2018-01-18T11:07:21.897Z,986.43
2018-01-18T11:08:02.247Z,986.37
2018-01-18T11:08:42.923Z,985.56
2018-01-18T11:09:23.631Z,986.69
2018-01-18T11:10:04.190Z,986.49
2018-01-18T11:10:45.326Z,986.83
2018-01-18T11:11:25.533Z,986.6
2018-01-18T11:12:06.393Z,986.81
2018-01-18T11:12:46.948Z,986.88
2018-01-18T11:13:27.682Z,986.78
2018-01-18T11:14:08.560Z,987.2
2018-01-18T11:14:49.327Z,987.15
2018-01-18T11:15:29.843Z,987.05
2018-01-18T11:16:10.403Z,987.18
2018-01-18T11:16:50.788Z,987.29
2018-01-18T11:17:31.465Z,986.77
2018-01-18T11:18:12.056Z,987.16
2018-01-18T11:18:53.372Z,987.28
2018-01-18T11:19:33.583Z,987.05
2018-01-18T11:20:13.904Z,987.24
2018-01-18T11:20:54.478Z,987.26
2018-01-18T11:21:35.146Z,986.8
2018-01-18T11:22:15.784Z,987.49
2018-01-18T11:22:56.353Z,987.37
2018-01-18T11:23:37.922Z,987.45
2018-01-18T11:30:31.784Z,987.73
2018-01-18T11:34:24.890Z,987.8
2018-01-18T11:35:27.161Z,987.94
2018-01-18T11:36:26.793Z,987.89
2018-01-18T11:39:24.169Z,987.88
2018-01-18T11:40:19.994Z,987.82
2018-01-18T11:41:14.595Z,988.05
2018-01-18T11:42:08.573Z,987.82
2018-01-18T11:43:05.825Z,988.16
2018-01-18T11:44:07.382Z,987.48
2018-01-18T11:45:02.839Z,987.68
2018-01-18T11:46:02.779Z,988.15
2018-01-18T11:47:10.361Z,988.26
2018-01-18T11:48:08.948Z,988.46
2018-01-18T11:49:02.680Z,987.68
2018-01-18T11:50:11.821Z,988.24
2018-01-18T11:51:13.443Z,988.45
2018-01-18T11:52:06.491Z,988.45
2018-01-18T11:52:58.567Z,988.29
2018-01-18T11:53:54.858Z,988.4
2018-01-18T11:54:58.044Z,988.31
2018-01-18T11:55:53.416Z,988.56
2018-01-18T11:56:50.820Z,988.36
2018-01-18T11:57:46.425Z,988.3
2018-01-18T11:58:43.970Z,988.31
2018-01-18T11:59:42.937Z,988.37
2018-01-18T12:02:16.438Z,988.55
2018-01-18T12:03:11.620Z,988.56
2018-01-18T12:04:11.504Z,988.59
2018-01-18T12:05:07.179Z,987.28
2018-01-18T12:06:05.563Z,988.64
2018-01-18T12:06:59.938Z,988.79
2018-01-18T12:07:55.673Z,988.93
2018-01-18T12:08:51.809Z,988.68
2018-01-18T12:09:47.863Z,988.67
2018-01-18T12:10:43.112Z,988.69
2018-01-18T12:12:53.181Z,988.16
2018-01-18T12:13:51.182Z,988.91
2018-01-18T12:14:47.048Z,989.07
2018-01-18T12:15:48.572Z,989.13
2018-01-18T12:16:43.705Z,988.65
2018-01-18T12:17:37.222Z,988.91
2018-01-18T12:18:33.531Z,988.94
2018-01-18T12:19:29.078Z,989.08
2018-01-18T12:20:22.346Z,989.24
2018-01-18T12:21:16.597Z,988.62
2018-01-18T12:22:16.282Z,988.94